Waukee, Iowa
Current Conditions -  °F | °C
As of 10:54 AM on Friday 24 Oct 2014 (Local Time) from KDSM Reporting Station
Haze Haze  
Wind Chill: 17°   Ceiling: 400
Heat Index: 17°   Visibility: 1.7mi
Dew Point: 16°   Wind: 14mph
Humidity: 93%   Direction: 190°S
Pressure: 29.97"   Gusts: NA
Location:  41.61°N, 93.89°W
Report Text: KDSM 241554Z 19012KT 1 3/4SM BR OVC004 17/16 A2997 RMK AO2 SFC VIS 3 CIG 003V008 SLP145 T01670156
Loading
Personal Weather Stations






























Interactive Weather Map
Tropical Storm Tracking
New forecast layout! Learn more

10-Day Weather Forecast

Advertisements
Track Severe Weather on mobile